createdAt,value
2022-10-04T00:01:45.042Z,99319.56
2022-10-04T00:04:21.447Z,99320.59
2022-10-04T00:07:16.217Z,99322.09
2022-10-04T00:09:53.202Z,99322.09
2022-10-04T00:12:27.175Z,99321.06
2022-10-04T00:14:57.452Z,99317.97
2022-10-04T00:17:27.317Z,99317.97
2022-10-04T00:19:55.169Z,99311.06
2022-10-04T00:22:23.977Z,99308.13
2022-10-04T00:25:09.865Z,99309.94
2022-10-04T00:27:38.192Z,99305.03
2022-10-04T00:30:04.526Z,99303.78
2022-10-04T00:32:40.262Z,99313.44
2022-10-04T00:35:24.744Z,99307.13
2022-10-04T00:37:58.731Z,99307.13
2022-10-04T00:40:32.780Z,99312.41
2022-10-04T00:43:05.006Z,99309.56
2022-10-04T00:45:41.471Z,99310.88
2022-10-04T00:48:07.798Z,99301.53
2022-10-04T00:50:42.012Z,99294.00
2022-10-04T00:53:27.238Z,99294.84
2022-10-04T00:55:59.991Z,99288.44
2022-10-04T00:58:32.597Z,99296.38
2022-10-04T01:01:00.976Z,99300.41
2022-10-04T01:03:41.317Z,99303.59
2022-10-04T01:06:10.864Z,99304.72
2022-10-04T01:08:54.591Z,99311.53
2022-10-04T01:11:27.192Z,99309.72
2022-10-04T01:14:08.716Z,99301.91
2022-10-04T01:16:36.369Z,99288.69
2022-10-04T01:19:24.716Z,99275.00
2022-10-04T01:21:58.676Z,99278.13
2022-10-04T01:24:25.127Z,99275.22
2022-10-04T01:26:51.601Z,99269.69
2022-10-04T01:29:25.482Z,99262.59
2022-10-04T01:31:54.870Z,99266.94
2022-10-04T01:34:24.806Z,99267.03
2022-10-04T01:36:54.308Z,99273.16
2022-10-04T01:39:23.206Z,99271.38
2022-10-04T01:42:03.206Z,99262.69
2022-10-04T01:45:18.862Z,99256.69
2022-10-04T01:47:54.031Z,99265.06
2022-10-04T01:50:28.046Z,99265.91
2022-10-04T01:53:01.434Z,99262.53
2022-10-04T01:55:34.192Z,99258.19
2022-10-04T01:58:17.227Z,99258.44
2022-10-04T02:00:52.043Z,99259.75
2022-10-04T02:03:27.588Z,99256.84
2022-10-04T02:05:58.756Z,99243.00
2022-10-04T02:08:33.634Z,99237.53
2022-10-04T02:11:03.112Z,99241.03
2022-10-04T02:13:40.941Z,99245.56
2022-10-04T02:16:12.092Z,99241.19
2022-10-04T02:18:40.178Z,99235.91
2022-10-04T02:21:08.152Z,99237.75
2022-10-04T02:23:36.981Z,99241.28
2022-10-04T02:26:08.105Z,99237.16
2022-10-04T02:28:36.134Z,99238.28
2022-10-04T02:31:23.750Z,99229.72
2022-10-04T02:33:52.892Z,99232.75
2022-10-04T02:36:25.718Z,99232.81
2022-10-04T02:39:16.328Z,99240.03
2022-10-04T02:42:03.749Z,99234.41
2022-10-04T02:44:40.115Z,99236.38
2022-10-04T02:47:13.968Z,99231.22
2022-10-04T02:49:52.574Z,99223.31
2022-10-04T02:52:25.989Z,99215.94
2022-10-04T02:55:03.258Z,99208.00
2022-10-04T02:57:32.743Z,99214.59
2022-10-04T03:00:20.982Z,99206.63
2022-10-04T03:03:12.279Z,99210.13
2022-10-04T03:05:40.453Z,99212.84
2022-10-04T03:08:07.412Z,99209.81
2022-10-04T03:10:35.438Z,99211.97
2022-10-04T03:13:03.328Z,99212.38
2022-10-04T03:15:30.291Z,99207.75
2022-10-04T03:17:56.802Z,99204.16
2022-10-04T03:20:23.163Z,99205.03
2022-10-04T03:22:55.590Z,99200.50
2022-10-04T03:25:48.571Z,99201.34
2022-10-04T03:28:15.244Z,99203.88
2022-10-04T03:30:46.631Z,99198.81
2022-10-04T03:33:31.442Z,99201.44
2022-10-04T03:36:00.821Z,99192.78
2022-10-04T03:38:28.813Z,99199.88
2022-10-04T03:40:59.028Z,99198.44
2022-10-04T03:43:31.398Z,99194.97
2022-10-04T03:46:00.361Z,99194.28
2022-10-04T03:48:44.675Z,99194.38
2022-10-04T03:51:16.879Z,99187.53
2022-10-04T03:53:47.386Z,99187.31
2022-10-04T03:56:44.586Z,99188.25
2022-10-04T03:59:16.131Z,99181.88
2022-10-04T04:01:56.336Z,99186.38
2022-10-04T04:04:46.211Z,99181.47
2022-10-04T04:07:20.117Z,99179.56
2022-10-04T04:10:01.629Z,99172.41
2022-10-04T04:12:49.563Z,99176.75
2022-10-04T04:15:16.979Z,99181.06
2022-10-04T04:17:49.451Z,99180.91
2022-10-04T04:20:22.366Z,99184.97
2022-10-04T04:22:59.589Z,99184.03
2022-10-04T04:25:29.107Z,99181.00
2022-10-04T04:28:27.572Z,99173.91
2022-10-04T04:31:00.278Z,99174.50
2022-10-04T04:33:34.442Z,99172.66
2022-10-04T04:36:06.496Z,99167.94
2022-10-04T04:38:33.216Z,99160.38
2022-10-04T04:41:09.846Z,99161.13
2022-10-04T04:43:36.341Z,99161.88
2022-10-04T04:46:26.606Z,99155.34
2022-10-04T04:49:02.814Z,99164.16
2022-10-04T04:51:31.922Z,99163.78
2022-10-04T04:54:01.139Z,99160.16
2022-10-04T04:56:30.076Z,99171.03
2022-10-04T04:59:01.641Z,99168.00
2022-10-04T05:01:31.911Z,99164.16
2022-10-04T05:04:13.477Z,99162.38
2022-10-04T05:06:42.611Z,99170.97
2022-10-04T05:09:27.994Z,99163.22
2022-10-04T05:12:02.349Z,99167.81
2022-10-04T05:14:31.678Z,99166.00
2022-10-04T05:16:58.317Z,99165.06
2022-10-04T05:19:32.093Z,99159.78
2022-10-04T05:22:01.527Z,99167.00
2022-10-04T05:24:38.624Z,99168.09
2022-10-04T05:27:16.821Z,99166.91
2022-10-04T05:30:08.753Z,99158.56
2022-10-04T05:33:02.814Z,99161.66
2022-10-04T05:35:38.547Z,99176.50
2022-10-04T05:38:19.380Z,99181.38
2022-10-04T05:41:05.290Z,99186.78
2022-10-04T05:43:34.691Z,99185.81
2022-10-04T05:46:10.431Z,99198.19
2022-10-04T05:48:39.396Z,99192.69
2022-10-04T05:51:25.414Z,99180.19
2022-10-04T05:53:52.772Z,99188.53
2022-10-04T05:56:32.319Z,99199.03
2022-10-04T05:59:32.528Z,99197.78
2022-10-04T06:02:17.891Z,99195.34
2022-10-04T06:05:05.737Z,99190.06
2022-10-04T06:07:46.362Z,99187.31
2022-10-04T06:10:42.175Z,99185.31
2022-10-04T06:13:17.215Z,99185.84
2022-10-04T06:15:48.191Z,99196.53
2022-10-04T06:18:23.738Z,99194.94
2022-10-04T06:21:05.425Z,99201.81
2022-10-04T06:23:37.025Z,99198.63
2022-10-04T06:26:18.021Z,99191.63
2022-10-04T06:28:50.145Z,99198.16
2022-10-04T06:31:24.508Z,99194.03
2022-10-04T06:34:21.852Z,99191.25
2022-10-04T06:37:17.584Z,99189.13
2022-10-04T06:40:02.874Z,99182.81
2022-10-04T06:42:39.321Z,99172.88
2022-10-04T06:45:28.999Z,99178.22
2022-10-04T06:48:23.043Z,99161.22
2022-10-04T06:51:03.289Z,99150.09
2022-10-04T06:53:57.660Z,99159.22
2022-10-04T06:56:46.594Z,99165.06
2022-10-04T06:59:26.755Z,99164.03
2022-10-04T07:02:00.526Z,99148.16
2022-10-04T07:07:37.256Z,99152.91
2022-10-04T07:10:24.009Z,99157.47
2022-10-04T07:13:04.417Z,99154.72
2022-10-04T07:15:41.688Z,99146.47
2022-10-04T07:18:15.329Z,99153.34
2022-10-04T07:20:42.031Z,99152.34
2022-10-04T07:23:23.958Z,99153.69
2022-10-04T07:25:58.832Z,99147.44
2022-10-04T07:28:51.660Z,99153.97
2022-10-04T07:31:27.279Z,99153.91
2022-10-04T07:34:01.443Z,99159.47
2022-10-04T07:36:39.941Z,99166.66
2022-10-04T07:39:18.902Z,99169.75
2022-10-04T07:41:50.552Z,99168.78
2022-10-04T07:44:35.984Z,99177.81
2022-10-04T07:47:25.706Z,99183.72
2022-10-04T07:49:54.001Z,99184.22
2022-10-04T07:52:44.965Z,99184.16
2022-10-04T07:55:37.234Z,99179.03
2022-10-04T07:58:35.385Z,99179.19
2022-10-04T08:01:10.204Z,99181.50
2022-10-04T08:03:39.595Z,99169.53
2022-10-04T08:06:12.019Z,99171.28
2022-10-04T08:08:58.154Z,99165.19
2022-10-04T08:11:38.667Z,99167.09
2022-10-04T08:14:17.413Z,99164.38
2022-10-04T08:17:01.486Z,99171.38
2022-10-04T08:19:56.837Z,99164.22
2022-10-04T08:22:37.643Z,99166.72
2022-10-04T08:25:27.305Z,99161.97
2022-10-04T08:28:41.714Z,99161.97
2022-10-04T08:31:36.786Z,99162.69
2022-10-04T08:34:34.013Z,99152.50
2022-10-04T08:37:38.866Z,99150.97
2022-10-04T08:40:20.346Z,99161.06
2022-10-04T08:43:13.274Z,99153.38
2022-10-04T08:46:10.190Z,99151.97
2022-10-04T08:49:13.947Z,99156.41
2022-10-04T08:51:51.147Z,99162.84
2022-10-04T08:54:29.899Z,99157.81
2022-10-04T08:57:16.157Z,99157.25
2022-10-04T09:00:18.480Z,99156.84
2022-10-04T09:03:00.113Z,99153.97
2022-10-04T09:05:46.676Z,99148.53
2022-10-04T09:08:40.827Z,99154.63
2022-10-04T09:11:22.370Z,99160.19
2022-10-04T09:14:38.778Z,99160.53
2022-10-04T09:17:31.088Z,99160.53
2022-10-04T09:20:37.705Z,99154.13
2022-10-04T09:23:33.693Z,99155.69
2022-10-04T09:26:44.066Z,99151.81
2022-10-04T09:29:22.341Z,99151.09
2022-10-04T09:32:10.274Z,99149.28
2022-10-04T09:34:58.308Z,99139.34
2022-10-04T09:37:49.568Z,99136.53
2022-10-04T09:40:35.085Z,99134.59
2022-10-04T09:43:37.574Z,99137.91
2022-10-04T09:46:20.131Z,99138.41
2022-10-04T09:49:10.914Z,99130.91
2022-10-04T09:52:01.230Z,99126.03
2022-10-04T09:54:50.612Z,99130.34
2022-10-04T09:57:30.161Z,99134.59
2022-10-04T10:00:22.011Z,99128.69
2022-10-04T10:03:26.254Z,99116.72
2022-10-04T10:06:14.422Z,99123.91
2022-10-04T10:09:22.322Z,99123.28
2022-10-04T10:12:16.248Z,99120.38
2022-10-04T10:15:08.238Z,99132.22
2022-10-04T10:18:08.892Z,99125.22
2022-10-04T10:21:02.409Z,99124.84
2022-10-04T10:23:50.690Z,99124.06
2022-10-04T10:26:32.927Z,99129.75
2022-10-04T10:29:30.890Z,99120.72
2022-10-04T10:32:01.948Z,99124.81
2022-10-04T10:34:49.640Z,99122.25
2022-10-04T10:37:51.246Z,99120.22
2022-10-04T10:40:32.794Z,99128.16
2022-10-04T10:43:34.021Z,99133.13
2022-10-04T10:46:38.147Z,99123.34
2022-10-04T10:49:31.881Z,99125.34
2022-10-04T10:52:25.383Z,99132.31
2022-10-04T10:55:10.589Z,99134.72
2022-10-04T10:57:55.765Z,99133.09
2022-10-04T11:00:24.539Z,99121.84
2022-10-04T11:03:35.976Z,99132.25
2022-10-04T11:06:16.409Z,99128.06
2022-10-04T11:09:22.981Z,99117.91
2022-10-04T11:12:32.377Z,99120.03
2022-10-04T11:15:47.393Z,99111.16
2022-10-04T11:18:32.415Z,99106.97
2022-10-04T11:21:17.532Z,99111.88
2022-10-04T11:23:53.428Z,99097.38
2022-10-04T11:26:25.649Z,99102.72
2022-10-04T11:29:16.132Z,99094.84
2022-10-04T11:31:54.815Z,99099.38
2022-10-04T11:34:40.043Z,99091.53
2022-10-04T11:37:29.169Z,99093.44
2022-10-04T11:40:30.430Z,99086.94
2022-10-04T11:43:35.972Z,99070.84
2022-10-04T11:46:12.155Z,99076.75
2022-10-04T11:49:14.369Z,99072.00
2022-10-04T11:52:16.854Z,99082.38
2022-10-04T11:55:23.338Z,99089.34
2022-10-04T11:58:14.628Z,99074.09
2022-10-04T12:00:56.209Z,99073.94
2022-10-04T12:03:53.310Z,99075.03
2022-10-04T12:06:47.757Z,99066.66
2022-10-04T12:09:25.949Z,99061.03
2022-10-04T12:12:39.253Z,99063.63
2022-10-04T12:15:30.287Z,99060.59
2022-10-04T12:18:09.023Z,99055.09
2022-10-04T12:20:53.222Z,99058.03
2022-10-04T12:23:49.737Z,99051.31
2022-10-04T12:26:41.024Z,99047.72
2022-10-04T12:29:28.877Z,99036.97
2022-10-04T12:32:04.260Z,99034.81
2022-10-04T12:34:40.204Z,99037.81
2022-10-04T12:37:30.893Z,99037.38
2022-10-04T12:40:12.583Z,99040.47
2022-10-04T12:42:41.978Z,99036.78
2022-10-04T12:45:08.333Z,99022.72
2022-10-04T12:48:10.982Z,99029.56
2022-10-04T12:50:54.376Z,99032.44
2022-10-04T12:53:31.987Z,99023.34
2022-10-04T12:56:04.330Z,99029.72
2022-10-04T12:58:52.120Z,99034.06
2022-10-04T13:01:46.819Z,99029.56
2022-10-04T13:04:23.527Z,99034.38
2022-10-04T13:06:59.378Z,99023.09
2022-10-04T13:09:48.583Z,99029.22
2022-10-04T13:13:08.893Z,99023.13
2022-10-04T13:18:57.529Z,99019.09
2022-10-04T13:21:36.206Z,99010.06
2022-10-04T13:24:25.441Z,99007.22
2022-10-04T13:27:01.006Z,99004.13
2022-10-04T13:29:38.230Z,99013.66
2022-10-04T13:32:20.840Z,99013.69
2022-10-04T13:35:07.098Z,99009.88
2022-10-04T13:37:49.075Z,99008.41
2022-10-04T13:40:24.363Z,99005.19
2022-10-04T13:42:53.581Z,99002.59
2022-10-04T13:45:41.477Z,99008.84
2022-10-04T13:48:32.507Z,98998.69
2022-10-04T13:51:39.291Z,99000.06
2022-10-04T13:54:24.020Z,99003.69
2022-10-04T13:57:18.586Z,99001.72
2022-10-04T14:00:02.491Z,99005.34
2022-10-04T14:03:01.105Z,99013.03
2022-10-04T14:05:42.652Z,99022.66
2022-10-04T14:08:32.786Z,99014.44
2022-10-04T14:11:23.778Z,99008.69
2022-10-04T14:14:00.386Z,99012.78
2022-10-04T14:16:41.786Z,99001.22
2022-10-04T14:19:45.667Z,98993.81
2022-10-04T14:22:48.539Z,98988.88
2022-10-04T14:25:46.068Z,98992.09
2022-10-04T14:28:31.636Z,98992.22
2022-10-04T14:31:08.008Z,98981.94
2022-10-04T14:34:26.740Z,98972.34
2022-10-04T14:37:13.347Z,98968.75
2022-10-04T14:39:54.980Z,98967.41
2022-10-04T14:43:00.050Z,98962.66
2022-10-04T14:46:04.646Z,98961.72
2022-10-04T14:48:55.656Z,98961.25
2022-10-04T14:51:37.724Z,98954.56
2022-10-04T14:54:36.083Z,98952.88
2022-10-04T14:57:25.622Z,98954.97
2022-10-04T15:00:03.316Z,98956.94
2022-10-04T15:02:32.958Z,98964.28
2022-10-04T15:04:59.300Z,98962.41
2022-10-04T15:07:38.087Z,98972.69
2022-10-04T15:10:18.949Z,98969.28
2022-10-04T15:13:30.380Z,98963.34
2022-10-04T15:16:12.919Z,98958.31
2022-10-04T15:18:56.718Z,98956.66
2022-10-04T15:21:44.065Z,98950.72
2022-10-04T15:24:31.730Z,98948.31
2022-10-04T15:27:30.130Z,98947.59
2022-10-04T15:30:20.941Z,98951.28
2022-10-04T15:33:01.189Z,98955.25
2022-10-04T15:35:36.894Z,98948.25
2022-10-04T15:38:38.266Z,98949.75
2022-10-04T15:41:13.809Z,98949.16
2022-10-04T15:44:05.848Z,98947.22
2022-10-04T15:47:00.545Z,98948.66
2022-10-04T15:49:49.985Z,98956.41
2022-10-04T15:52:45.838Z,98948.97
2022-10-04T15:55:47.970Z,98945.66
2022-10-04T15:58:33.353Z,98943.50
2022-10-04T16:01:06.330Z,98944.44
2022-10-04T16:03:46.082Z,98936.66
2022-10-04T16:06:32.818Z,98926.09
2022-10-04T16:09:37.439Z,98929.91
2022-10-04T16:13:01.347Z,98920.72
2022-10-04T16:15:34.455Z,98921.25
2022-10-04T16:18:12.226Z,98910.13
2022-10-04T16:20:57.264Z,98906.28
2022-10-04T16:23:39.978Z,98905.97
2022-10-04T16:26:11.257Z,98918.81
2022-10-04T16:29:16.510Z,98923.34
2022-10-04T16:31:47.852Z,98916.09
2022-10-04T16:34:43.101Z,98909.19
2022-10-04T16:37:44.724Z,98918.31
2022-10-04T16:40:26.619Z,98919.66
2022-10-04T16:43:20.958Z,98906.75
2022-10-04T16:46:15.329Z,98909.56
2022-10-04T16:48:57.498Z,98919.41
2022-10-04T16:51:43.045Z,98915.06
2022-10-04T16:54:12.157Z,98915.91
2022-10-04T16:56:53.971Z,98920.91
2022-10-04T16:59:38.672Z,98919.00
2022-10-04T17:02:33.301Z,98925.66
2022-10-04T17:05:02.845Z,98930.84
2022-10-04T17:07:34.889Z,98927.59
2022-10-04T17:10:32.089Z,98934.66
2022-10-04T17:13:13.706Z,98932.75
2022-10-04T17:15:49.785Z,98932.44
2022-10-04T17:18:29.462Z,98937.69
2022-10-04T17:21:05.935Z,98930.75
2022-10-04T17:23:57.133Z,98944.03
2022-10-04T17:26:38.418Z,98933.81
2022-10-04T17:29:49.124Z,98935.59
2022-10-04T17:32:35.089Z,98949.00
2022-10-04T17:35:54.390Z,98958.16
2022-10-04T17:38:43.559Z,98956.00
2022-10-04T17:41:27.093Z,98964.25
2022-10-04T17:44:24.329Z,98963.78
2022-10-04T17:47:15.926Z,98961.03
2022-10-04T17:50:14.923Z,98963.78
2022-10-04T17:53:04.415Z,98964.56
2022-10-04T17:55:58.990Z,98967.13
2022-10-04T17:58:44.490Z,98969.84
2022-10-04T18:01:17.625Z,98963.09
2022-10-04T18:04:36.719Z,98970.28
2022-10-04T18:07:18.657Z,98972.53
2022-10-04T18:09:52.620Z,98971.84
2022-10-04T18:12:29.981Z,98977.06
2022-10-04T18:15:07.318Z,98976.47
2022-10-04T18:17:45.072Z,98974.53
2022-10-04T18:20:27.255Z,98975.34
2022-10-04T18:23:13.387Z,98966.97
2022-10-04T18:25:41.608Z,98968.06
2022-10-04T18:28:07.970Z,98967.47
2022-10-04T18:30:51.297Z,98979.53
2022-10-04T18:33:26.454Z,98973.66
2022-10-04T18:36:16.665Z,98970.97
2022-10-04T18:38:47.327Z,98980.50
2022-10-04T18:41:23.061Z,98974.06
2022-10-04T18:43:58.429Z,98978.94
2022-10-04T18:46:25.357Z,98990.69
2022-10-04T18:48:56.867Z,98992.22
2022-10-04T18:51:39.120Z,98989.97
2022-10-04T18:54:41.549Z,98998.25
2022-10-04T18:57:54.832Z,98997.19
2022-10-04T19:00:40.646Z,99006.84
2022-10-04T19:03:32.122Z,99002.47
2022-10-04T19:06:13.822Z,99021.94
2022-10-04T19:08:40.138Z,99017.03
2022-10-04T19:11:15.995Z,99017.56
2022-10-04T19:13:52.983Z,99021.00
2022-10-04T19:16:42.811Z,99026.53
2022-10-04T19:19:20.436Z,99026.16
2022-10-04T19:22:00.833Z,99019.59
2022-10-04T19:25:02.729Z,99025.06
2022-10-04T19:27:41.098Z,99026.44
2022-10-04T19:30:52.331Z,99022.22
2022-10-04T19:33:36.942Z,99021.38
2022-10-04T19:36:03.551Z,99024.41
2022-10-04T19:38:40.461Z,99019.34
2022-10-04T19:41:20.830Z,99023.63
2022-10-04T19:43:58.667Z,99022.94
2022-10-04T19:46:35.073Z,99025.13
2022-10-04T19:49:02.871Z,99020.88
2022-10-04T19:51:42.373Z,99020.50
2022-10-04T19:54:15.910Z,99013.75
2022-10-04T19:56:47.337Z,99009.28
2022-10-04T19:59:35.785Z,99016.91
2022-10-04T20:02:02.380Z,99023.44
2022-10-04T20:04:42.157Z,99020.59
2022-10-04T20:07:15.100Z,99022.16
2022-10-04T20:09:43.601Z,99028.16
2022-10-04T20:12:40.128Z,99032.63
2022-10-04T20:15:20.083Z,99037.47
2022-10-04T20:17:49.793Z,99038.81
2022-10-04T20:20:39.205Z,99031.13
2022-10-04T20:23:07.628Z,99038.03
2022-10-04T20:25:54.247Z,99035.38
2022-10-04T20:28:26.866Z,99035.75
2022-10-04T20:31:02.248Z,99032.94
2022-10-04T20:33:34.818Z,99028.72
2022-10-04T20:36:03.893Z,99030.91
2022-10-04T20:38:54.349Z,99034.06
2022-10-04T20:41:48.802Z,99028.00
2022-10-04T20:45:09.203Z,99031.50
2022-10-04T20:47:42.808Z,99024.28
2022-10-04T20:50:29.264Z,99023.94
2022-10-04T20:52:58.778Z,99021.13
2022-10-04T20:55:34.065Z,99026.44
2022-10-04T20:58:25.306Z,99017.41
2022-10-04T21:00:54.573Z,99011.25
2022-10-04T21:03:22.003Z,98996.78
2022-10-04T21:06:08.843Z,98998.84
2022-10-04T21:08:36.681Z,98993.19
2022-10-04T21:11:19.433Z,98989.31
2022-10-04T21:13:58.353Z,98994.34
2022-10-04T21:16:39.007Z,98998.09
2022-10-04T21:19:30.313Z,98991.00
2022-10-04T21:21:57.626Z,98989.41
2022-10-04T21:24:52.901Z,98991.34
2022-10-04T21:27:35.953Z,98989.75
2022-10-04T21:30:06.788Z,98994.34
2022-10-04T21:32:35.936Z,98995.75
2022-10-04T21:35:04.286Z,98997.00
2022-10-04T21:37:31.287Z,98984.84
2022-10-04T21:39:57.833Z,98986.03
2022-10-04T21:42:25.561Z,98987.44
2022-10-04T21:44:52.035Z,98984.28
2022-10-04T21:47:21.522Z,98984.19
2022-10-04T21:49:48.738Z,98983.34
2022-10-04T21:52:17.497Z,98979.84
2022-10-04T21:54:44.687Z,98978.50
2022-10-04T21:57:11.568Z,98972.66
2022-10-04T21:59:37.940Z,98979.63
2022-10-04T22:02:04.597Z,98972.53
2022-10-04T22:04:30.991Z,98970.22
2022-10-04T22:06:57.322Z,98969.75
2022-10-04T22:09:23.758Z,98965.53
2022-10-04T22:11:50.172Z,98972.38
2022-10-04T22:14:16.609Z,98975.41
2022-10-04T22:16:44.108Z,98976.25
2022-10-04T22:19:10.744Z,98969.06
2022-10-04T22:21:37.145Z,98975.97
2022-10-04T22:24:04.424Z,98970.53
2022-10-04T22:26:31.350Z,98961.06
2022-10-04T22:28:57.838Z,98957.84
2022-10-04T22:31:29.509Z,98959.97
2022-10-04T22:33:56.700Z,98949.03
2022-10-04T22:36:27.069Z,98952.88
2022-10-04T22:38:58.702Z,98951.22
2022-10-04T22:41:35.476Z,98951.78
2022-10-04T22:44:23.282Z,98953.84
2022-10-04T22:46:52.901Z,98960.56
2022-10-04T22:49:25.062Z,98966.94
2022-10-04T22:51:53.031Z,98972.84
2022-10-04T22:54:22.014Z,98967.72
2022-10-04T22:56:49.165Z,98964.66
2022-10-04T22:59:19.496Z,98956.34
2022-10-04T23:01:46.885Z,98950.59
2022-10-04T23:04:24.962Z,98958.09
2022-10-04T23:06:52.848Z,98969.66
2022-10-04T23:09:19.973Z,98955.03
2022-10-04T23:11:46.878Z,98955.28
2022-10-04T23:14:13.293Z,98963.97
2022-10-04T23:16:39.812Z,98967.69
2022-10-04T23:19:08.939Z,98981.91
2022-10-04T23:21:38.341Z,98975.78
2022-10-04T23:24:22.579Z,98975.50
2022-10-04T23:26:54.591Z,98975.84
2022-10-04T23:29:31.942Z,98973.81
2022-10-04T23:31:58.480Z,98973.19
2022-10-04T23:34:30.495Z,98973.06
2022-10-04T23:36:57.024Z,98981.84
2022-10-04T23:39:41.856Z,98972.63
2022-10-04T23:42:33.588Z,98969.94
2022-10-04T23:45:01.457Z,98972.16
2022-10-04T23:47:33.535Z,98965.63
2022-10-04T23:49:59.976Z,98960.13
2022-10-04T23:52:34.799Z,98956.63
2022-10-04T23:55:02.633Z,98953.47
2022-10-04T23:57:31.117Z,98947.34
